Calgary, Canada
Current Conditions -  °F | °C
As of 6:00 PM on Friday 28 Nov 2014 (Local Time) from CYYC Reporting Station
Light Snow Light Snow  
Wind Chill: -30°   Ceiling: 600
Heat Index: -6°   Visibility: 0.62mi
Dew Point: -13°   Wind: 21mph
Humidity: 71%   Direction: 350°N
Pressure: 29.67"   Gusts: NA
Location:  51.05°N, 114.06°W
Report Text: CYYC 290100Z 35018KT 5/8SM R35L/P6000FT/U R35R/3000FT/U R11/3000FT/U -SN BKN006 OVC016 M21/M25 A2967 RMK SC5SC3 PRESRR SLP149
Loading
Personal Weather Stations






























Interactive Weather Map New forecast layout! Learn more

10-Day Weather Forecast

Advertisements
Track Severe Weather on mobile